createdAt,value
2022-10-24T00:01:44.145Z,96.62
2022-10-24T00:04:12.881Z,96.39
2022-10-24T00:06:41.653Z,96.78
2022-10-24T00:09:10.355Z,96.62
2022-10-24T00:11:38.897Z,96.69
2022-10-24T00:14:07.422Z,96.65
2022-10-24T00:16:35.784Z,96.52
2022-10-24T00:19:05.060Z,96.56
2022-10-24T00:21:33.471Z,96.57
2022-10-24T00:24:01.885Z,96.65
2022-10-24T00:26:30.561Z,96.55
2022-10-24T00:28:58.889Z,96.56
2022-10-24T00:31:27.733Z,96.54
2022-10-24T00:33:56.429Z,96.12
2022-10-24T00:36:25.798Z,96.33
2022-10-24T00:38:54.322Z,96.18
2022-10-24T00:41:26.255Z,96.34
2022-10-24T00:44:15.846Z,96.49
2022-10-24T00:46:47.003Z,96.38
2022-10-24T00:49:18.465Z,96.55
2022-10-24T00:51:48.847Z,96.65
2022-10-24T00:54:17.419Z,96.70
2022-10-24T00:56:53.862Z,96.77
2022-10-24T00:59:22.504Z,96.92
2022-10-24T01:01:50.835Z,97.05
2022-10-24T01:04:19.354Z,97.40
2022-10-24T01:06:53.683Z,97.22
2022-10-24T01:09:48.922Z,97.38
2022-10-24T01:12:25.486Z,97.50
2022-10-24T01:15:01.920Z,97.48
2022-10-24T01:17:35.565Z,97.49
2022-10-24T01:20:33.841Z,97.71
2022-10-24T01:23:12.106Z,97.75
2022-10-24T01:25:46.519Z,97.77
2022-10-24T01:28:16.211Z,97.64
2022-10-24T01:30:47.422Z,98.09
2022-10-24T01:33:20.613Z,98.15
2022-10-24T01:35:53.084Z,98.01
2022-10-24T01:38:26.882Z,98.02
2022-10-24T01:40:57.823Z,98.25
2022-10-24T01:43:28.741Z,98.62
2022-10-24T01:46:02.128Z,98.90
2022-10-24T01:48:33.870Z,99.04
2022-10-24T01:51:04.406Z,99.17
2022-10-24T01:53:33.256Z,99.20
2022-10-24T01:56:01.684Z,99.40
2022-10-24T01:58:30.286Z,99.61
2022-10-24T02:01:02.253Z,99.54
2022-10-24T02:03:33.786Z,99.85
2022-10-24T02:06:06.452Z,99.64
2022-10-24T02:08:38.351Z,99.83
2022-10-24T02:11:07.911Z,99.82
2022-10-24T02:13:44.559Z,100.00
2022-10-24T02:16:14.729Z,100.00
2022-10-24T02:18:43.214Z,100.00
2022-10-24T02:21:19.641Z,100.00
2022-10-24T02:23:54.548Z,100.00
2022-10-24T02:26:32.787Z,100.00
2022-10-24T02:29:07.054Z,100.00
2022-10-24T02:31:36.611Z,100.00
2022-10-24T02:34:07.055Z,100.00
2022-10-24T02:36:36.403Z,100.00
2022-10-24T02:39:06.646Z,100.00
2022-10-24T02:41:37.725Z,100.00
2022-10-24T02:44:09.587Z,100.00
2022-10-24T02:46:38.845Z,100.00
2022-10-24T02:49:07.887Z,100.00
2022-10-24T02:51:39.427Z,100.00
2022-10-24T02:54:08.136Z,100.00
2022-10-24T02:56:39.344Z,100.00
2022-10-24T03:01:41.599Z,100.00
2022-10-24T03:04:10.325Z,100.00
2022-10-24T03:06:38.667Z,100.00
2022-10-24T03:09:07.382Z,100.00
2022-10-24T03:11:37.009Z,100.00
2022-10-24T03:14:06.071Z,100.00
2022-10-24T03:16:34.657Z,100.00
2022-10-24T03:19:03.091Z,100.00
2022-10-24T03:21:31.485Z,100.00
2022-10-24T03:24:00.311Z,100.00
2022-10-24T03:26:28.713Z,100.00
2022-10-24T03:28:57.093Z,100.00
2022-10-24T03:31:25.572Z,100.00
2022-10-24T03:33:54.683Z,100.00
2022-10-24T03:36:23.012Z,100.00
2022-10-24T03:38:51.683Z,100.00
2022-10-24T03:41:20.433Z,100.00
2022-10-24T03:43:48.859Z,100.00
2022-10-24T03:46:17.592Z,100.00
2022-10-24T03:48:46.076Z,100.00
2022-10-24T03:51:14.935Z,100.00
2022-10-24T03:53:43.591Z,100.00
2022-10-24T03:56:11.912Z,100.00
2022-10-24T03:58:40.206Z,100.00
2022-10-24T04:01:16.441Z,100.00
2022-10-24T04:03:45.369Z,100.00
2022-10-24T04:06:14.543Z,100.00
2022-10-24T04:08:43.115Z,100.00
2022-10-24T04:11:11.533Z,100.00
2022-10-24T04:13:40.526Z,100.00
2022-10-24T04:16:09.391Z,100.00
2022-10-24T04:18:38.007Z,100.00
2022-10-24T04:21:06.897Z,100.00
2022-10-24T04:23:40.779Z,100.00
2022-10-24T04:26:09.873Z,100.00
2022-10-24T04:28:38.472Z,100.00
2022-10-24T04:31:06.961Z,100.00
2022-10-24T04:33:44.069Z,100.00
2022-10-24T04:36:12.681Z,100.00
2022-10-24T04:38:42.135Z,100.00
2022-10-24T04:41:12.146Z,100.00
2022-10-24T04:43:41.315Z,100.00
2022-10-24T04:46:10.153Z,100.00
2022-10-24T04:48:38.624Z,100.00
2022-10-24T04:51:07.454Z,100.00
2022-10-24T04:53:36.231Z,100.00
2022-10-24T04:56:06.127Z,100.00
2022-10-24T04:58:34.586Z,100.00
2022-10-24T05:01:03.561Z,100.00
2022-10-24T05:03:32.169Z,100.00
2022-10-24T05:06:00.667Z,100.00
2022-10-24T05:08:29.136Z,100.00
2022-10-24T05:10:57.557Z,100.00
2022-10-24T05:13:26.297Z,100.00
2022-10-24T05:15:55.208Z,100.00
2022-10-24T05:18:23.599Z,100.00
2022-10-24T05:20:52.222Z,100.00
2022-10-24T05:23:20.596Z,100.00
2022-10-24T05:25:49.135Z,100.00
2022-10-24T05:28:17.697Z,100.00
2022-10-24T05:30:46.512Z,100.00
2022-10-24T05:33:14.879Z,100.00
2022-10-24T05:35:43.516Z,100.00
2022-10-24T05:38:12.133Z,100.00
2022-10-24T05:40:40.539Z,100.00
2022-10-24T05:43:08.957Z,100.00
2022-10-24T05:45:37.386Z,100.00
2022-10-24T05:48:06.940Z,100.00
2022-10-24T05:50:35.892Z,100.00
2022-10-24T05:53:08.084Z,100.00
2022-10-24T05:55:36.494Z,100.00
2022-10-24T05:58:04.953Z,100.00
2022-10-24T06:00:34.552Z,100.00
2022-10-24T06:03:04.953Z,100.00
2022-10-24T06:05:33.411Z,100.00
2022-10-24T06:08:01.867Z,100.00
2022-10-24T06:10:30.516Z,100.00
2022-10-24T06:12:58.991Z,100.00
2022-10-24T06:15:27.589Z,100.00
2022-10-24T06:18:01.393Z,100.00
2022-10-24T06:20:30.227Z,100.00
2022-10-24T06:22:58.640Z,100.00
2022-10-24T06:25:27.162Z,100.00
2022-10-24T06:27:57.572Z,100.00
2022-10-24T06:30:26.388Z,100.00
2022-10-24T06:32:54.832Z,100.00
2022-10-24T06:35:23.156Z,100.00
2022-10-24T06:37:53.257Z,100.00
2022-10-24T06:40:22.198Z,100.00
2022-10-24T06:42:50.645Z,100.00
2022-10-24T06:45:22.227Z,100.00
2022-10-24T06:47:54.092Z,100.00
2022-10-24T06:50:25.642Z,100.00
2022-10-24T06:52:54.411Z,100.00
2022-10-24T06:55:24.205Z,100.00
2022-10-24T06:57:54.315Z,100.00
2022-10-24T07:00:23.132Z,100.00
2022-10-24T07:02:51.469Z,100.00
2022-10-24T07:05:20.383Z,100.00
2022-10-24T07:07:48.852Z,100.00
2022-10-24T07:10:17.300Z,100.00
2022-10-24T07:12:46.325Z,100.00
2022-10-24T07:15:15.146Z,100.00
2022-10-24T07:17:45.152Z,100.00
2022-10-24T07:20:14.862Z,100.00
2022-10-24T07:22:45.144Z,100.00
2022-10-24T07:25:14.201Z,100.00
2022-10-24T07:27:42.879Z,100.00
2022-10-24T07:30:17.458Z,100.00
2022-10-24T07:32:46.220Z,100.00
2022-10-24T07:35:15.181Z,100.00
2022-10-24T07:37:43.872Z,100.00
2022-10-24T07:40:13.508Z,100.00
2022-10-24T07:42:42.030Z,100.00
2022-10-24T07:45:11.868Z,100.00
2022-10-24T07:47:40.505Z,99.94
2022-10-24T07:50:10.258Z,100.00
2022-10-24T07:52:38.717Z,99.99
2022-10-24T07:55:08.814Z,99.97
2022-10-24T07:57:37.261Z,100.00
2022-10-24T08:00:07.826Z,100.00
2022-10-24T08:02:36.469Z,99.95
2022-10-24T08:05:06.048Z,100.00
2022-10-24T08:07:36.735Z,100.00
2022-10-24T08:10:09.735Z,100.00
2022-10-24T08:12:39.281Z,100.00
2022-10-24T08:15:09.216Z,100.00
2022-10-24T08:17:37.664Z,100.00
2022-10-24T08:20:08.266Z,100.00
2022-10-24T08:22:36.932Z,100.00
2022-10-24T08:25:09.327Z,100.00
2022-10-24T08:27:37.815Z,100.00
2022-10-24T08:30:08.317Z,99.99
2022-10-24T08:32:37.737Z,99.97
2022-10-24T08:35:08.768Z,100.00
2022-10-24T08:40:15.099Z,99.67
2022-10-24T08:42:44.362Z,99.78
2022-10-24T08:45:17.692Z,99.67
2022-10-24T08:47:51.471Z,99.57
2022-10-24T08:50:24.389Z,99.23
2022-10-24T08:52:58.700Z,98.99
2022-10-24T08:55:47.981Z,99.12
2022-10-24T08:58:20.137Z,99.02
2022-10-24T09:00:50.890Z,98.95
2022-10-24T09:03:31.447Z,98.96
2022-10-24T09:06:17.712Z,99.13
2022-10-24T09:08:51.227Z,99.49
2022-10-24T09:11:24.500Z,99.46
2022-10-24T09:13:52.766Z,99.52
2022-10-24T09:16:23.817Z,98.87
2022-10-24T09:18:54.516Z,98.73
2022-10-24T09:21:23.612Z,98.37
2022-10-24T09:23:52.555Z,97.97
2022-10-24T09:26:26.610Z,97.59
2022-10-24T09:28:56.410Z,97.26
2022-10-24T09:31:26.601Z,97.06
2022-10-24T09:33:59.730Z,96.72
2022-10-24T09:36:30.510Z,96.59
2022-10-24T09:39:23.898Z,96.62
2022-10-24T09:41:52.575Z,96.18
2022-10-24T09:44:37.039Z,95.02
2022-10-24T09:47:09.005Z,94.34
2022-10-24T09:49:40.804Z,93.66
2022-10-24T09:52:18.019Z,94.20
2022-10-24T09:54:47.226Z,94.10
2022-10-24T09:57:17.573Z,93.97
2022-10-24T09:59:48.108Z,93.63
2022-10-24T10:02:34.300Z,93.56
2022-10-24T10:05:18.617Z,93.70
2022-10-24T10:07:48.341Z,93.81
2022-10-24T10:10:34.140Z,93.60
2022-10-24T10:13:19.448Z,93.20
2022-10-24T10:15:49.932Z,93.52
2022-10-24T10:18:31.567Z,93.40
2022-10-24T10:21:09.822Z,93.48
2022-10-24T10:23:41.386Z,93.23
2022-10-24T10:26:19.556Z,92.89
2022-10-24T10:28:54.318Z,92.48
2022-10-24T10:31:26.747Z,92.30
2022-10-24T10:34:14.111Z,92.28
2022-10-24T10:37:04.214Z,92.51
2022-10-24T10:39:47.752Z,92.59
2022-10-24T10:42:19.085Z,92.48
2022-10-24T10:44:57.005Z,92.42
2022-10-24T10:47:35.389Z,92.40
2022-10-24T10:52:56.357Z,92.00
2022-10-24T10:55:31.765Z,91.83
2022-10-24T10:58:13.039Z,91.99
2022-10-24T11:00:46.484Z,92.17
2022-10-24T11:03:33.998Z,92.18
2022-10-24T11:06:14.297Z,92.00
2022-10-24T11:09:32.224Z,91.90
2022-10-24T11:12:09.714Z,91.69
2022-10-24T11:14:39.890Z,91.45
2022-10-24T11:17:13.182Z,91.45
2022-10-24T11:19:47.763Z,91.38
2022-10-24T11:22:21.103Z,91.35
2022-10-24T11:24:57.426Z,91.10
2022-10-24T11:27:30.124Z,90.40
2022-10-24T11:30:04.571Z,89.84
2022-10-24T11:32:36.683Z,89.71
2022-10-24T11:35:09.751Z,89.82
2022-10-24T11:37:40.374Z,89.69
2022-10-24T11:40:13.675Z,89.02
2022-10-24T11:42:47.373Z,89.43
2022-10-24T11:45:18.312Z,89.41
2022-10-24T11:47:55.900Z,89.18
2022-10-24T11:50:31.139Z,89.28
2022-10-24T11:53:04.577Z,89.26
2022-10-24T11:55:38.325Z,88.97
2022-10-24T11:58:08.580Z,88.85
2022-10-24T12:01:11.276Z,88.62
2022-10-24T12:03:58.063Z,88.49
2022-10-24T12:06:43.754Z,88.70
2022-10-24T12:09:40.640Z,88.67
2022-10-24T12:12:19.628Z,88.56
2022-10-24T12:14:59.842Z,87.55
2022-10-24T12:17:40.237Z,87.50
2022-10-24T12:20:15.305Z,87.30
2022-10-24T12:22:44.969Z,87.57
2022-10-24T12:25:23.423Z,86.70
2022-10-24T12:27:56.078Z,86.79
2022-10-24T12:30:27.000Z,86.33
2022-10-24T12:32:58.140Z,85.70
2022-10-24T12:35:38.145Z,85.81
2022-10-24T12:38:16.688Z,85.72
2022-10-24T12:40:56.153Z,85.55
2022-10-24T12:43:35.783Z,84.95
2022-10-24T12:46:37.443Z,84.64
2022-10-24T12:49:26.340Z,84.70
2022-10-24T12:51:55.755Z,83.99
2022-10-24T12:54:38.976Z,83.92
2022-10-24T12:57:25.578Z,84.09
2022-10-24T12:59:57.461Z,83.49
2022-10-24T13:02:50.753Z,82.96
2022-10-24T13:05:50.909Z,83.59
2022-10-24T13:08:36.747Z,83.01
2022-10-24T13:11:12.885Z,81.57
2022-10-24T13:13:55.011Z,81.38
2022-10-24T13:16:41.482Z,81.29
2022-10-24T13:19:16.895Z,81.89
2022-10-24T13:21:48.250Z,82.01
2022-10-24T13:24:37.903Z,80.36
2022-10-24T13:27:25.099Z,79.64
2022-10-24T13:30:24.669Z,79.45
2022-10-24T13:33:31.285Z,80.13
2022-10-24T13:36:14.238Z,80.08
2022-10-24T13:38:46.106Z,80.19
2022-10-24T13:41:20.108Z,80.65
2022-10-24T13:43:51.133Z,80.39
2022-10-24T13:46:26.855Z,80.49
2022-10-24T13:48:55.825Z,80.51
2022-10-24T13:51:28.595Z,79.85
2022-10-24T13:54:01.360Z,79.78
2022-10-24T13:56:31.916Z,79.82
2022-10-24T13:59:00.420Z,79.85
2022-10-24T14:01:29.984Z,79.77
2022-10-24T14:04:01.203Z,79.66
2022-10-24T14:06:31.032Z,79.89
2022-10-24T14:09:07.157Z,79.71
2022-10-24T14:11:40.756Z,79.79
2022-10-24T14:14:24.085Z,79.75
2022-10-24T14:17:06.511Z,79.57
2022-10-24T14:19:38.776Z,79.64
2022-10-24T14:22:20.058Z,79.65
2022-10-24T14:24:50.025Z,79.67
2022-10-24T14:27:20.002Z,79.78
2022-10-24T14:29:57.711Z,79.61
2022-10-24T14:32:27.961Z,79.79
2022-10-24T14:34:57.856Z,79.62
2022-10-24T14:37:32.746Z,79.74
2022-10-24T14:40:01.634Z,79.85
2022-10-24T14:42:30.865Z,79.80
2022-10-24T14:44:59.902Z,79.94
2022-10-24T14:47:31.683Z,80.08
2022-10-24T14:50:00.757Z,79.98
2022-10-24T14:52:35.809Z,79.96
2022-10-24T14:55:06.753Z,80.01
2022-10-24T14:57:36.500Z,79.87
2022-10-24T15:00:08.564Z,80.08
2022-10-24T15:02:42.083Z,80.14
2022-10-24T15:05:32.593Z,80.31
2022-10-24T15:08:21.670Z,80.41
2022-10-24T15:11:03.886Z,80.54
2022-10-24T15:13:34.216Z,80.57
2022-10-24T15:16:02.711Z,80.74
2022-10-24T15:18:35.131Z,80.89
2022-10-24T15:21:06.904Z,80.90
2022-10-24T15:23:37.904Z,81.07
2022-10-24T15:26:11.687Z,81.28
2022-10-24T15:28:46.534Z,81.22
2022-10-24T15:31:17.508Z,81.29
2022-10-24T15:33:48.655Z,81.51
2022-10-24T15:36:22.628Z,81.59
2022-10-24T15:38:55.995Z,81.74
2022-10-24T15:41:24.685Z,81.84
2022-10-24T15:43:55.547Z,81.84
2022-10-24T15:46:24.294Z,81.87
2022-10-24T15:48:52.818Z,81.94
2022-10-24T15:51:22.927Z,81.84
2022-10-24T15:53:53.404Z,81.92
2022-10-24T15:56:23.829Z,82.08
2022-10-24T15:58:56.817Z,82.20
2022-10-24T16:01:30.851Z,82.42
2022-10-24T16:04:00.557Z,82.36
2022-10-24T16:06:29.696Z,82.63
2022-10-24T16:08:58.128Z,82.84
2022-10-24T16:11:26.652Z,82.74
2022-10-24T16:13:55.847Z,83.06
2022-10-24T16:16:25.110Z,83.23
2022-10-24T16:18:54.034Z,83.16
2022-10-24T16:21:23.660Z,83.46
2022-10-24T16:23:53.831Z,83.65
2022-10-24T16:26:22.773Z,83.61
2022-10-24T16:28:51.203Z,83.90
2022-10-24T16:31:22.856Z,83.86
2022-10-24T16:33:52.462Z,84.00
2022-10-24T16:36:23.848Z,84.31
2022-10-24T16:38:53.771Z,84.37
2022-10-24T16:41:23.893Z,84.36
2022-10-24T16:43:56.116Z,84.50
2022-10-24T16:46:26.663Z,84.46
2022-10-24T16:48:57.680Z,84.50
2022-10-24T16:51:31.596Z,84.67
2022-10-24T16:54:02.040Z,84.70
2022-10-24T16:56:30.928Z,84.95
2022-10-24T16:59:01.044Z,85.19
2022-10-24T17:01:30.802Z,85.20
2022-10-24T17:04:00.783Z,85.32
2022-10-24T17:06:29.507Z,85.39
2022-10-24T17:08:57.989Z,85.52
2022-10-24T17:11:44.258Z,85.79
2022-10-24T17:14:14.580Z,85.87
2022-10-24T17:16:43.852Z,85.97
2022-10-24T17:19:16.214Z,85.86
2022-10-24T17:21:49.789Z,86.07
2022-10-24T17:24:20.547Z,85.94
2022-10-24T17:26:50.189Z,86.15
2022-10-24T17:29:25.390Z,86.17
2022-10-24T17:31:54.765Z,86.44
2022-10-24T17:34:23.893Z,86.64
2022-10-24T17:36:57.660Z,86.74
2022-10-24T17:39:30.483Z,86.96
2022-10-24T17:41:59.536Z,86.91
2022-10-24T17:44:29.016Z,87.24
2022-10-24T17:46:58.506Z,87.16
2022-10-24T17:49:27.497Z,87.48
2022-10-24T17:51:55.927Z,87.37
2022-10-24T17:54:24.311Z,87.60
2022-10-24T17:56:52.930Z,87.62
2022-10-24T17:59:21.749Z,87.78
2022-10-24T18:01:51.007Z,87.89
2022-10-24T18:04:19.568Z,87.79
2022-10-24T18:06:48.741Z,88.08
2022-10-24T18:09:17.176Z,88.15
2022-10-24T18:11:47.094Z,88.12
2022-10-24T18:14:16.094Z,88.19
2022-10-24T18:16:44.817Z,88.43
2022-10-24T18:19:13.636Z,88.54
2022-10-24T18:21:43.347Z,88.69
2022-10-24T18:24:12.079Z,88.64
2022-10-24T18:26:43.852Z,89.09
2022-10-24T18:29:12.522Z,88.90
2022-10-24T18:31:40.931Z,89.07
2022-10-24T18:34:10.693Z,89.04
2022-10-24T18:36:39.996Z,89.24
2022-10-24T18:39:08.576Z,89.21
2022-10-24T18:41:44.334Z,89.24
2022-10-24T18:44:28.363Z,89.31
2022-10-24T18:47:01.328Z,89.58
2022-10-24T18:49:33.549Z,89.79
2022-10-24T18:52:15.919Z,90.01
2022-10-24T18:54:52.754Z,90.01
2022-10-24T18:57:24.649Z,90.05
2022-10-24T18:59:55.834Z,90.06
2022-10-24T19:02:33.854Z,90.26
2022-10-24T19:05:15.819Z,90.42
2022-10-24T19:07:51.040Z,90.46
2022-10-24T19:10:22.862Z,90.39
2022-10-24T19:12:52.405Z,90.55
2022-10-24T19:15:22.547Z,90.55
2022-10-24T19:17:53.259Z,90.82
2022-10-24T19:20:23.928Z,90.84
2022-10-24T19:22:53.212Z,91.02
2022-10-24T19:25:22.227Z,90.94
2022-10-24T19:30:26.790Z,91.09
2022-10-24T19:32:55.830Z,91.24
2022-10-24T19:35:26.043Z,91.26
2022-10-24T19:37:57.844Z,91.27
2022-10-24T19:40:26.599Z,91.36
2022-10-24T19:42:55.237Z,91.51
2022-10-24T19:45:25.176Z,91.79
2022-10-24T19:47:59.238Z,92.02
2022-10-24T19:50:27.847Z,91.75
2022-10-24T19:52:57.190Z,91.90
2022-10-24T19:55:26.567Z,91.87
2022-10-24T19:57:55.617Z,91.98
2022-10-24T20:00:25.580Z,92.07
2022-10-24T20:02:56.002Z,92.17
2022-10-24T20:05:24.873Z,92.42
2022-10-24T20:07:53.305Z,92.25
2022-10-24T20:12:56.673Z,92.65
2022-10-24T20:15:25.239Z,92.72
2022-10-24T20:17:53.600Z,92.92
2022-10-24T20:20:23.753Z,92.91
2022-10-24T20:22:52.751Z,93.05
2022-10-24T20:25:21.192Z,92.99
2022-10-24T20:27:49.973Z,93.11
2022-10-24T20:30:18.729Z,93.02
2022-10-24T20:32:47.229Z,93.15
2022-10-24T20:35:19.968Z,93.16
2022-10-24T20:37:48.880Z,93.27
2022-10-24T20:40:18.180Z,93.22
2022-10-24T20:42:57.277Z,93.22
2022-10-24T20:45:26.596Z,93.32
2022-10-24T20:47:57.917Z,93.58
2022-10-24T20:50:26.587Z,93.66
2022-10-24T20:52:55.375Z,93.60
2022-10-24T20:55:39.287Z,93.65
2022-10-24T20:58:12.815Z,93.93
2022-10-24T21:03:15.433Z,93.86
2022-10-24T21:05:43.919Z,93.74
2022-10-24T21:08:12.332Z,93.77
2022-10-24T21:10:41.935Z,93.80
2022-10-24T21:13:10.478Z,94.01
2022-10-24T21:15:39.978Z,94.12
2022-10-24T21:18:08.472Z,94.23
2022-10-24T21:20:37.219Z,94.08
2022-10-24T21:23:05.841Z,94.08
2022-10-24T21:25:34.444Z,94.24
2022-10-24T21:28:02.983Z,94.30
2022-10-24T21:30:31.485Z,94.24
2022-10-24T21:33:00.659Z,94.43
2022-10-24T21:35:30.807Z,94.33
2022-10-24T21:37:59.185Z,94.66
2022-10-24T21:40:27.725Z,94.68
2022-10-24T21:42:56.103Z,95.06
2022-10-24T21:45:24.554Z,95.05
2022-10-24T21:47:53.123Z,95.05
2022-10-24T21:50:21.452Z,94.94
2022-10-24T21:52:49.974Z,94.98
2022-10-24T21:55:18.565Z,94.91
2022-10-24T21:57:46.995Z,94.97
2022-10-24T22:00:16.603Z,95.08
2022-10-24T22:02:45.331Z,95.17
2022-10-24T22:05:14.259Z,95.27
2022-10-24T22:07:45.011Z,95.20
2022-10-24T22:10:16.428Z,95.23
2022-10-24T22:12:45.101Z,95.28
2022-10-24T22:15:13.437Z,95.20
2022-10-24T22:17:42.013Z,95.22
2022-10-24T22:20:11.781Z,95.28
2022-10-24T22:22:40.131Z,95.12
2022-10-24T22:25:09.677Z,95.28
2022-10-24T22:27:38.069Z,95.24
2022-10-24T22:30:08.885Z,95.27
2022-10-24T22:32:38.180Z,95.29
2022-10-24T22:35:11.584Z,95.22
2022-10-24T22:37:41.171Z,95.49
2022-10-24T22:40:19.190Z,95.65
2022-10-24T22:42:48.956Z,95.45
2022-10-24T22:45:19.179Z,95.48
2022-10-24T22:48:07.374Z,95.47
2022-10-24T22:50:50.563Z,95.66
2022-10-24T22:53:21.696Z,95.76
2022-10-24T22:56:03.305Z,95.65
2022-10-24T22:58:33.265Z,95.61
2022-10-24T23:01:12.694Z,95.47
2022-10-24T23:04:10.257Z,95.71
2022-10-24T23:06:44.482Z,95.86
2022-10-24T23:09:12.052Z,95.91
2022-10-24T23:11:41.569Z,96.36
2022-10-24T23:14:11.934Z,96.55
2022-10-24T23:16:44.612Z,97.14
2022-10-24T23:19:20.400Z,97.01
2022-10-24T23:21:52.522Z,96.69
2022-10-24T23:24:21.607Z,96.62
2022-10-24T23:27:03.712Z,96.30
2022-10-24T23:29:33.853Z,96.43
2022-10-24T23:32:04.243Z,96.77
2022-10-24T23:34:34.433Z,96.95
2022-10-24T23:37:04.358Z,96.63
2022-10-24T23:39:35.662Z,96.41
2022-10-24T23:42:05.250Z,96.40
2022-10-24T23:44:35.438Z,96.33
2022-10-24T23:47:10.580Z,96.38
2022-10-24T23:49:42.582Z,96.44
2022-10-24T23:52:17.853Z,96.52
2022-10-24T23:54:47.654Z,96.53
2022-10-24T23:57:19.240Z,96.66
2022-10-24T23:59:47.802Z,96.71
